createdAt,value
2019-03-25T00:00:10.234Z,14.10
2019-03-25T00:02:42.957Z,13.98
2019-03-25T00:05:14.135Z,14.09
2019-03-25T00:07:46.292Z,14.16
2019-03-25T00:10:30.024Z,14.15
2019-03-25T00:13:09.166Z,13.76
2019-03-25T00:15:44.308Z,14.14
2019-03-25T00:18:17.526Z,14.41
2019-03-25T00:20:48.278Z,14.41
2019-03-25T00:23:19.020Z,13.63
2019-03-25T00:25:50.669Z,13.81
2019-03-25T00:28:22.607Z,13.75
2019-03-25T00:30:54.028Z,13.76
2019-03-25T00:33:25.034Z,13.83
2019-03-25T00:35:56.875Z,14.02
2019-03-25T00:38:28.654Z,14.00
2019-03-25T00:41:03.428Z,13.78
2019-03-25T00:43:35.229Z,13.52
2019-03-25T00:46:07.200Z,13.49
2019-03-25T00:48:40.782Z,13.21
2019-03-25T00:51:11.940Z,13.46
2019-03-25T00:53:43.733Z,13.09
2019-03-25T00:56:15.664Z,12.49
2019-03-25T00:58:47.674Z,12.25
2019-03-25T01:01:18.905Z,12.96
2019-03-25T01:03:54.102Z,13.09
2019-03-25T01:06:29.552Z,12.65
2019-03-25T01:09:02.169Z,12.86
2019-03-25T01:11:48.648Z,12.39
2019-03-25T01:14:12.363Z,12.53
2019-03-25T01:16:44.924Z,12.62
2019-03-25T01:19:17.614Z,12.40
2019-03-25T01:21:52.472Z,12.38
2019-03-25T01:24:23.862Z,12.72
2019-03-25T01:26:55.866Z,10.97
2019-03-25T01:29:27.141Z,11.75
2019-03-25T01:31:58.185Z,11.84
2019-03-25T01:34:29.533Z,11.58
2019-03-25T01:37:00.552Z,11.68
2019-03-25T01:39:32.596Z,11.52
2019-03-25T01:42:11.236Z,11.08
2019-03-25T01:44:42.654Z,11.58
2019-03-25T01:47:14.592Z,11.75
2019-03-25T01:49:46.078Z,11.81
2019-03-25T01:52:19.167Z,12.50
2019-03-25T01:54:53.722Z,12.37
2019-03-25T01:57:29.022Z,12.21
2019-03-25T02:00:01.585Z,12.27
2019-03-25T02:02:33.570Z,12.60
2019-03-25T02:05:05.059Z,12.18
2019-03-25T02:07:36.179Z,12.02
2019-03-25T02:10:08.700Z,12.56
2019-03-25T02:12:46.441Z,12.35
2019-03-25T02:15:21.875Z,12.23
2019-03-25T02:17:54.025Z,12.30
2019-03-25T02:20:27.329Z,12.42
2019-03-25T02:23:01.399Z,11.55
2019-03-25T02:25:36.168Z,12.07
2019-03-25T02:28:09.847Z,12.08
2019-03-25T02:30:45.311Z,12.01
2019-03-25T02:33:16.586Z,12.10
2019-03-25T02:35:48.783Z,12.14
2019-03-25T02:38:20.806Z,12.06
2019-03-25T02:40:54.064Z,11.90
2019-03-25T02:43:27.603Z,12.07
2019-03-25T02:45:59.870Z,12.01
2019-03-25T02:48:30.990Z,12.06
2019-03-25T02:51:02.963Z,11.68
2019-03-25T02:53:35.391Z,11.99
2019-03-25T02:56:07.480Z,12.13
2019-03-25T02:58:39.681Z,12.01
2019-03-25T03:01:12.004Z,12.27
2019-03-25T03:03:43.570Z,12.11
2019-03-25T03:06:16.933Z,11.90
2019-03-25T03:08:48.927Z,12.61
2019-03-25T03:11:22.481Z,12.24
2019-03-25T03:13:58.555Z,12.29
2019-03-25T03:16:31.562Z,12.50
2019-03-25T03:19:04.552Z,12.81
2019-03-25T03:21:37.491Z,12.91
2019-03-25T03:24:11.081Z,13.22
2019-03-25T03:26:43.685Z,12.73
2019-03-25T03:29:17.369Z,12.80
2019-03-25T03:31:49.310Z,13.26
2019-03-25T03:34:20.396Z,12.87
2019-03-25T03:36:51.824Z,13.26
2019-03-25T03:39:23.348Z,13.03
2019-03-25T03:41:55.858Z,12.25
2019-03-25T03:44:31.039Z,13.04
2019-03-25T03:47:02.123Z,12.90
2019-03-25T03:49:33.350Z,13.14
2019-03-25T03:52:05.759Z,12.91
2019-03-25T03:54:42.721Z,13.25
2019-03-25T03:57:14.695Z,13.18
2019-03-25T03:59:46.808Z,12.82
2019-03-25T04:02:17.954Z,13.21
2019-03-25T04:04:49.303Z,13.36
2019-03-25T04:07:21.045Z,12.99
2019-03-25T04:09:54.789Z,12.94
2019-03-25T04:12:29.074Z,13.27
2019-03-25T04:15:03.541Z,13.20
2019-03-25T04:17:35.421Z,12.95
2019-03-25T04:20:08.221Z,13.00
2019-03-25T04:22:41.707Z,13.31
2019-03-25T04:25:14.967Z,13.38
2019-03-25T04:27:46.189Z,13.04
2019-03-25T04:30:21.174Z,13.30
2019-03-25T04:32:56.485Z,13.64
2019-03-25T04:35:29.071Z,13.20
2019-03-25T04:38:01.749Z,13.27
2019-03-25T04:40:32.789Z,13.46
2019-03-25T04:43:07.242Z,13.58
2019-03-25T04:45:52.021Z,13.73
2019-03-25T04:48:23.688Z,13.35
2019-03-25T04:50:56.976Z,13.48
2019-03-25T04:53:29.512Z,13.43
2019-03-25T04:56:01.139Z,13.43
2019-03-25T04:58:32.142Z,13.60
2019-03-25T05:01:04.924Z,13.71
2019-03-25T05:03:37.692Z,13.42
2019-03-25T05:06:09.519Z,13.52
2019-03-25T05:08:42.092Z,13.53
2019-03-25T05:11:16.935Z,13.24
2019-03-25T05:14:11.523Z,13.41
2019-03-25T05:16:45.149Z,12.67
2019-03-25T05:19:17.707Z,12.37
2019-03-25T05:21:50.495Z,11.86
2019-03-25T05:24:22.663Z,11.95
2019-03-25T05:26:53.430Z,11.69
2019-03-25T05:29:24.251Z,11.47
2019-03-25T05:32:05.416Z,11.63
2019-03-25T05:34:42.621Z,11.42
2019-03-25T05:37:18.095Z,11.44
2019-03-25T05:39:54.329Z,11.30
2019-03-25T05:42:27.353Z,11.71
2019-03-25T05:45:05.629Z,11.67
2019-03-25T05:47:45.801Z,11.96
2019-03-25T05:50:21.765Z,12.02
2019-03-25T05:52:53.648Z,12.27
2019-03-25T05:55:25.754Z,12.42
2019-03-25T05:57:57.675Z,12.48
2019-03-25T06:00:44.165Z,12.55
2019-03-25T06:03:20.136Z,12.68
2019-03-25T06:05:51.859Z,12.94
2019-03-25T06:08:23.694Z,13.03
2019-03-25T06:10:57.544Z,12.80
2019-03-25T06:13:31.337Z,12.67
2019-03-25T06:16:04.146Z,12.81
2019-03-25T06:18:37.099Z,12.66
2019-03-25T06:21:09.092Z,12.87
2019-03-25T06:23:44.632Z,12.73
2019-03-25T06:26:16.519Z,12.40
2019-03-25T06:28:48.232Z,12.49
2019-03-25T06:31:19.759Z,12.20
2019-03-25T06:33:54.520Z,11.93
2019-03-25T06:36:26.066Z,12.31
2019-03-25T06:39:00.343Z,11.88
2019-03-25T06:41:32.503Z,11.86
2019-03-25T06:44:05.707Z,12.00
2019-03-25T06:46:37.633Z,12.33
2019-03-25T06:49:12.825Z,11.91
2019-03-25T06:51:45.656Z,12.19
2019-03-25T06:54:20.255Z,12.05
2019-03-25T06:56:55.761Z,12.44
2019-03-25T06:59:29.232Z,12.59
2019-03-25T07:02:08.033Z,12.86
2019-03-25T07:04:41.587Z,13.37
2019-03-25T07:07:16.050Z,13.34
2019-03-25T07:09:48.380Z,13.29
2019-03-25T07:12:21.916Z,12.68
2019-03-25T07:14:54.717Z,13.05
2019-03-25T07:17:27.186Z,12.55
2019-03-25T07:20:01.810Z,12.67
2019-03-25T07:22:34.782Z,12.87
2019-03-25T07:25:07.679Z,13.11
2019-03-25T07:27:40.928Z,13.05
2019-03-25T07:30:15.124Z,13.12
2019-03-25T07:32:48.660Z,13.35
2019-03-25T07:35:22.438Z,13.30
2019-03-25T07:37:54.868Z,13.63
2019-03-25T07:40:26.463Z,13.62
2019-03-25T07:42:58.465Z,13.63
2019-03-25T07:45:37.202Z,13.76
2019-03-25T07:48:11.568Z,13.61
2019-03-25T07:50:49.904Z,13.55
2019-03-25T07:53:21.344Z,13.75
2019-03-25T07:55:53.369Z,13.73
2019-03-25T07:58:24.464Z,13.57
2019-03-25T08:00:55.569Z,13.75
2019-03-25T08:03:28.255Z,14.02
2019-03-25T08:06:01.632Z,13.56
2019-03-25T08:08:34.191Z,13.52
2019-03-25T08:11:06.539Z,13.17
2019-03-25T08:13:38.350Z,13.47
2019-03-25T08:16:10.468Z,13.44
2019-03-25T08:18:42.491Z,13.10
2019-03-25T08:21:16.014Z,12.18
2019-03-25T08:23:47.591Z,12.79
2019-03-25T08:26:21.253Z,12.99
2019-03-25T08:28:53.182Z,12.98
2019-03-25T08:31:27.136Z,13.13
2019-03-25T08:33:59.017Z,13.38
2019-03-25T08:36:31.436Z,13.27
2019-03-25T08:39:02.249Z,13.39
2019-03-25T08:41:36.750Z,13.35
2019-03-25T08:44:13.219Z,13.24
2019-03-25T08:46:44.393Z,13.33
2019-03-25T08:49:15.908Z,13.20
2019-03-25T08:51:48.893Z,13.42
2019-03-25T08:54:23.676Z,13.22
2019-03-25T08:56:55.178Z,13.19
2019-03-25T08:59:32.058Z,13.15
2019-03-25T09:02:16.280Z,13.51
2019-03-25T09:04:47.929Z,14.08
2019-03-25T09:07:19.795Z,13.34
2019-03-25T09:09:54.696Z,13.18
2019-03-25T09:12:27.751Z,13.52
2019-03-25T09:14:59.948Z,13.71
2019-03-25T09:17:31.834Z,13.70
2019-03-25T09:20:03.390Z,13.60
2019-03-25T09:22:40.764Z,13.99
2019-03-25T09:25:14.487Z,13.62
2019-03-25T09:27:47.001Z,13.77
2019-03-25T09:30:51.359Z,14.17
2019-03-25T09:33:24.769Z,13.69
2019-03-25T09:35:57.583Z,13.73
2019-03-25T09:38:33.410Z,13.86
2019-03-25T09:41:05.130Z,13.64
2019-03-25T09:43:37.460Z,12.99
2019-03-25T09:46:08.710Z,13.53
2019-03-25T09:48:41.392Z,13.64
2019-03-25T09:51:12.724Z,13.40
2019-03-25T09:53:51.335Z,13.61
2019-03-25T09:56:28.251Z,13.65
2019-03-25T09:59:08.076Z,13.52
2019-03-25T10:01:40.398Z,13.81
2019-03-25T10:04:12.000Z,13.65
2019-03-25T10:06:43.945Z,14.26
2019-03-25T10:09:19.264Z,14.23
2019-03-25T10:11:52.530Z,13.97
2019-03-25T10:14:26.212Z,14.56
2019-03-25T10:16:59.053Z,14.76
2019-03-25T10:19:30.729Z,14.25
2019-03-25T10:22:05.384Z,14.27
2019-03-25T10:24:38.122Z,14.25
2019-03-25T10:27:10.039Z,13.72
2019-03-25T10:29:41.129Z,13.58
2019-03-25T10:32:11.857Z,14.77
2019-03-25T10:34:42.681Z,14.30
2019-03-25T10:37:15.226Z,14.72
2019-03-25T10:39:47.289Z,14.86
2019-03-25T10:42:22.455Z,15.34
2019-03-25T10:44:53.647Z,15.39
2019-03-25T10:47:26.944Z,15.63
2019-03-25T10:50:00.777Z,14.55
2019-03-25T10:52:34.867Z,13.79
2019-03-25T10:55:09.412Z,13.74
2019-03-25T10:57:42.170Z,13.49
2019-03-25T11:00:14.373Z,13.57
2019-03-25T11:02:46.399Z,13.23
2019-03-25T11:05:18.460Z,13.38
2019-03-25T11:07:54.221Z,12.99
2019-03-25T11:10:27.653Z,13.39
2019-03-25T11:12:59.889Z,13.10
2019-03-25T11:15:38.224Z,13.83
2019-03-25T11:18:14.723Z,14.12
2019-03-25T11:20:48.495Z,14.41
2019-03-25T11:23:23.136Z,14.78
2019-03-25T11:26:01.010Z,15.47
2019-03-25T11:28:38.343Z,15.82
2019-03-25T11:31:09.716Z,14.80
2019-03-25T11:33:43.658Z,15.60
2019-03-25T11:36:14.481Z,15.88
2019-03-25T11:38:46.275Z,15.97
2019-03-25T11:41:18.234Z,15.81
2019-03-25T11:43:52.088Z,15.73
2019-03-25T11:46:24.683Z,16.46
2019-03-25T11:48:56.564Z,17.03
2019-03-25T11:51:27.793Z,17.36
2019-03-25T11:53:59.733Z,16.85
2019-03-25T11:56:33.768Z,16.31
2019-03-25T11:59:05.089Z,15.65
2019-03-25T12:01:36.349Z,15.73
2019-03-25T12:04:07.994Z,15.39
2019-03-25T12:06:41.621Z,15.13
2019-03-25T12:09:14.472Z,14.76
2019-03-25T12:11:49.668Z,14.00
2019-03-25T12:14:24.373Z,13.53
2019-03-25T12:16:57.978Z,14.15
2019-03-25T12:19:29.535Z,15.09
2019-03-25T12:22:00.800Z,15.43
2019-03-25T12:24:32.408Z,16.53
2019-03-25T12:27:09.893Z,16.78
2019-03-25T12:29:44.415Z,17.26
2019-03-25T12:32:18.365Z,17.70
2019-03-25T12:34:55.106Z,17.77
2019-03-25T12:37:27.057Z,17.26
2019-03-25T12:39:58.631Z,17.36
2019-03-25T12:42:31.071Z,17.55
2019-03-25T12:45:02.251Z,17.92
2019-03-25T12:47:33.989Z,18.31
2019-03-25T12:50:07.619Z,17.81
2019-03-25T12:52:40.097Z,17.49
2019-03-25T12:55:11.402Z,17.93
2019-03-25T12:57:52.129Z,17.48
2019-03-25T13:00:45.745Z,17.86
2019-03-25T13:03:21.426Z,16.91
2019-03-25T13:05:55.847Z,16.64
2019-03-25T13:08:33.161Z,15.06
2019-03-25T13:11:02.269Z,14.94
2019-03-25T13:13:36.769Z,15.03
2019-03-25T13:16:08.175Z,15.87
2019-03-25T13:18:41.525Z,16.90
2019-03-25T13:21:14.578Z,16.69
2019-03-25T13:23:46.789Z,18.23
2019-03-25T13:26:18.038Z,19.98
2019-03-25T13:28:57.490Z,20.68
2019-03-25T13:31:22.768Z,21.39
2019-03-25T13:33:54.637Z,22.24
2019-03-25T13:36:28.162Z,23.95
2019-03-25T13:39:00.584Z,25.57
2019-03-25T13:41:33.937Z,24.74
2019-03-25T13:44:06.908Z,25.50
2019-03-25T13:46:40.090Z,24.54
2019-03-25T13:49:15.133Z,24.47
2019-03-25T13:51:48.018Z,23.13
2019-03-25T13:54:20.565Z,22.62
2019-03-25T13:56:54.557Z,20.90
2019-03-25T13:59:51.010Z,19.79
2019-03-25T14:02:24.435Z,21.10
2019-03-25T14:04:56.365Z,20.67
2019-03-25T14:07:28.422Z,19.79
2019-03-25T14:10:00.687Z,18.77
2019-03-25T14:12:32.897Z,18.85
2019-03-25T14:15:05.272Z,18.37
2019-03-25T14:17:38.062Z,17.50
2019-03-25T14:20:11.976Z,17.52
2019-03-25T14:22:45.763Z,17.24
2019-03-25T14:25:17.265Z,17.08
2019-03-25T14:27:51.145Z,17.29
2019-03-25T14:30:26.377Z,17.16
2019-03-25T14:32:59.129Z,16.04
2019-03-25T14:35:30.748Z,15.99
2019-03-25T14:38:04.140Z,15.79
2019-03-25T14:40:35.303Z,15.23
2019-03-25T14:43:10.747Z,15.46
2019-03-25T14:45:44.595Z,15.73
2019-03-25T14:48:16.577Z,16.03
2019-03-25T14:50:48.447Z,16.68
2019-03-25T14:53:21.704Z,16.71
2019-03-25T14:55:54.307Z,16.36
2019-03-25T14:58:26.181Z,15.95
2019-03-25T15:01:00.883Z,15.02
2019-03-25T15:03:34.441Z,14.42
2019-03-25T15:06:05.622Z,14.02
2019-03-25T15:08:39.406Z,13.88
2019-03-25T15:11:11.856Z,14.31
2019-03-25T15:13:43.088Z,14.34
2019-03-25T15:16:17.575Z,13.91
2019-03-25T15:18:50.274Z,13.26
2019-03-25T15:21:21.424Z,15.12
2019-03-25T15:23:54.642Z,15.63
2019-03-25T15:26:26.346Z,16.67
2019-03-25T15:28:58.056Z,17.03
2019-03-25T15:31:32.060Z,17.16
2019-03-25T15:34:06.011Z,17.01
2019-03-25T15:36:37.509Z,17.05
2019-03-25T15:39:10.216Z,16.95
2019-03-25T15:41:41.823Z,17.39
2019-03-25T15:44:16.386Z,17.31
2019-03-25T15:46:55.670Z,17.88
2019-03-25T15:49:23.609Z,17.34
2019-03-25T15:51:54.488Z,16.64
2019-03-25T15:54:26.789Z,16.10
2019-03-25T15:56:57.571Z,15.78
2019-03-25T15:59:29.095Z,15.15
2019-03-25T16:02:05.997Z,14.99
2019-03-25T16:04:39.528Z,14.83
2019-03-25T16:07:11.863Z,15.05
2019-03-25T16:09:42.882Z,14.54
2019-03-25T16:12:14.024Z,15.16
2019-03-25T16:14:46.402Z,15.31
2019-03-25T16:17:19.165Z,14.73
2019-03-25T16:19:52.715Z,14.83
2019-03-25T16:22:27.633Z,14.76
2019-03-25T16:25:03.823Z,14.07
2019-03-25T16:27:38.120Z,14.05
2019-03-25T16:30:10.588Z,14.32
2019-03-25T16:32:43.131Z,14.51
2019-03-25T16:35:15.315Z,14.31
2019-03-25T16:37:49.084Z,14.58
2019-03-25T16:40:22.774Z,14.67
2019-03-25T16:42:53.701Z,13.91
2019-03-25T16:45:26.370Z,13.99
2019-03-25T16:48:00.571Z,14.67
2019-03-25T16:50:32.722Z,14.82
2019-03-25T16:53:04.142Z,14.22
2019-03-25T16:55:35.750Z,14.03
2019-03-25T16:58:09.331Z,14.55
2019-03-25T17:00:40.842Z,14.18
2019-03-25T17:03:14.828Z,14.38
2019-03-25T17:05:48.950Z,14.24
2019-03-25T17:08:20.021Z,13.92
2019-03-25T17:10:51.746Z,14.18
2019-03-25T17:13:23.004Z,14.21
2019-03-25T17:17:16.115Z,14.45
2019-03-25T17:19:26.797Z,14.96
2019-03-25T17:22:06.597Z,14.38
2019-03-25T17:24:38.948Z,14.66
2019-03-25T17:27:12.979Z,14.58
2019-03-25T17:29:44.108Z,14.03
2019-03-25T17:32:17.228Z,14.21
2019-03-25T17:34:50.356Z,14.38
2019-03-25T17:37:23.253Z,14.61
2019-03-25T17:39:55.653Z,14.86
2019-03-25T17:42:27.924Z,14.16
2019-03-25T17:44:59.993Z,14.12
2019-03-25T17:47:35.337Z,14.44
2019-03-25T17:50:11.480Z,14.15
2019-03-25T17:52:42.204Z,14.58
2019-03-25T17:55:14.646Z,14.39
2019-03-25T17:57:52.512Z,14.54
2019-03-25T18:01:09.333Z,14.60
2019-03-25T18:03:41.395Z,14.16
2019-03-25T18:06:13.666Z,14.35
2019-03-25T18:08:47.440Z,14.42
2019-03-25T18:11:22.982Z,14.45
2019-03-25T18:13:57.927Z,14.75
2019-03-25T18:16:31.132Z,14.88
2019-03-25T18:19:04.259Z,14.88
2019-03-25T18:21:40.170Z,15.06
2019-03-25T18:24:11.921Z,14.76
2019-03-25T18:26:42.740Z,14.99
2019-03-25T18:29:14.072Z,14.73
2019-03-25T18:31:45.531Z,14.38
2019-03-25T18:34:17.494Z,14.53
2019-03-25T18:36:50.788Z,14.54
2019-03-25T18:39:22.206Z,14.05
2019-03-25T18:41:56.252Z,14.32
2019-03-25T18:44:27.470Z,14.53
2019-03-25T18:46:59.647Z,14.71
2019-03-25T18:49:33.256Z,14.69
2019-03-25T18:52:05.724Z,14.24
2019-03-25T18:54:36.760Z,14.18
2019-03-25T18:57:08.695Z,14.15
2019-03-25T18:59:47.343Z,14.18
2019-03-25T19:02:22.442Z,13.78
2019-03-25T19:04:55.378Z,13.90
2019-03-25T19:07:27.630Z,13.55
2019-03-25T19:10:02.046Z,14.02
2019-03-25T19:12:33.273Z,13.83
2019-03-25T19:15:04.075Z,13.77
2019-03-25T19:17:35.759Z,14.05
2019-03-25T19:20:06.855Z,14.05
2019-03-25T19:22:40.603Z,14.26
2019-03-25T19:25:11.652Z,14.04
2019-03-25T19:27:44.063Z,14.26
2019-03-25T19:30:17.479Z,14.20
2019-03-25T19:32:50.240Z,14.37
2019-03-25T19:35:22.917Z,14.51
2019-03-25T19:38:06.531Z,14.93
2019-03-25T19:40:40.169Z,14.60
2019-03-25T19:43:13.272Z,14.65
2019-03-25T19:45:47.249Z,14.64
2019-03-25T19:48:19.863Z,14.18
2019-03-25T19:50:51.793Z,14.48
2019-03-25T19:53:24.178Z,14.62
2019-03-25T19:55:56.689Z,14.69
2019-03-25T19:58:28.251Z,14.74
2019-03-25T20:01:00.029Z,14.98
2019-03-25T20:03:32.967Z,15.28
2019-03-25T20:06:06.922Z,15.27
2019-03-25T20:08:38.605Z,15.14
2019-03-25T20:11:10.116Z,15.04
2019-03-25T20:13:41.214Z,15.05
2019-03-25T20:16:13.844Z,15.16
2019-03-25T20:18:45.687Z,14.88
2019-03-25T20:21:16.746Z,15.09
2019-03-25T20:23:50.502Z,15.11
2019-03-25T20:26:22.422Z,15.26
2019-03-25T20:28:56.182Z,14.91
2019-03-25T20:31:28.786Z,15.13
2019-03-25T20:34:10.405Z,14.48
2019-03-25T20:36:34.279Z,15.02
2019-03-25T20:39:10.330Z,14.48
2019-03-25T20:41:43.723Z,14.59
2019-03-25T20:44:15.716Z,14.69
2019-03-25T20:46:49.249Z,14.80
2019-03-25T20:49:20.446Z,14.75
2019-03-25T20:51:53.330Z,14.83
2019-03-25T20:54:24.639Z,15.00
2019-03-25T20:56:55.580Z,15.02
2019-03-25T20:59:27.186Z,14.80
2019-03-25T21:01:59.538Z,14.57
2019-03-25T21:04:32.420Z,14.89
2019-03-25T21:07:06.871Z,14.38
2019-03-25T21:09:38.930Z,14.80
2019-03-25T21:12:10.438Z,14.53
2019-03-25T21:14:42.453Z,14.52
2019-03-25T21:17:15.576Z,14.59
2019-03-25T21:19:48.612Z,14.24
2019-03-25T21:22:22.087Z,14.53
2019-03-25T21:24:55.837Z,14.49
2019-03-25T21:27:29.626Z,14.74
2019-03-25T21:30:05.722Z,14.65
2019-03-25T21:32:37.960Z,14.98
2019-03-25T21:35:11.190Z,15.19
2019-03-25T21:37:43.172Z,14.97
2019-03-25T21:40:18.326Z,14.86
2019-03-25T21:42:49.113Z,15.22
2019-03-25T21:45:21.524Z,15.16
2019-03-25T21:47:53.746Z,14.69
2019-03-25T21:50:26.555Z,14.66
2019-03-25T21:52:58.222Z,14.61
2019-03-25T21:55:31.291Z,14.82
2019-03-25T21:58:02.631Z,14.94
2019-03-25T22:00:36.739Z,15.05
2019-03-25T22:03:12.033Z,15.19
2019-03-25T22:05:44.571Z,15.31
2019-03-25T22:08:17.805Z,14.95
2019-03-25T22:10:49.687Z,14.91
2019-03-25T22:13:23.731Z,15.04
2019-03-25T22:15:59.187Z,14.97
2019-03-25T22:18:32.033Z,14.94
2019-03-25T22:21:05.541Z,14.19
2019-03-25T22:23:37.882Z,14.41
2019-03-25T22:26:12.732Z,13.38
2019-03-25T22:28:44.308Z,14.09
2019-03-25T22:31:16.168Z,13.79
2019-03-25T22:33:46.903Z,13.21
2019-03-25T22:36:18.584Z,13.49
2019-03-25T22:38:49.334Z,13.75
2019-03-25T22:41:23.382Z,13.79
2019-03-25T22:43:55.019Z,13.91
2019-03-25T22:46:34.924Z,13.95
2019-03-25T22:49:11.555Z,14.18
2019-03-25T22:51:45.317Z,14.41
2019-03-25T22:54:17.386Z,14.59
2019-03-25T22:56:48.445Z,14.59
2019-03-25T22:59:21.750Z,14.03
2019-03-25T23:01:54.088Z,14.65
2019-03-25T23:04:26.066Z,14.49
2019-03-25T23:06:58.680Z,14.23
2019-03-25T23:09:32.486Z,14.64
2019-03-25T23:12:08.703Z,14.66
2019-03-25T23:14:40.243Z,14.27
2019-03-25T23:17:11.317Z,14.38
2019-03-25T23:19:43.535Z,14.36
2019-03-25T23:22:18.399Z,14.07
2019-03-25T23:24:50.187Z,14.16
2019-03-25T23:27:29.490Z,13.78
2019-03-25T23:30:06.377Z,13.65
2019-03-25T23:32:39.417Z,14.09
2019-03-25T23:35:11.105Z,13.66
2019-03-25T23:37:42.742Z,13.91
2019-03-25T23:40:15.449Z,14.14
2019-03-25T23:42:48.180Z,14.07
2019-03-25T23:45:19.561Z,13.64
2019-03-25T23:47:51.512Z,13.72
2019-03-25T23:50:23.202Z,13.87
2019-03-25T23:52:54.422Z,13.88
2019-03-25T23:55:25.462Z,13.96
2019-03-25T23:57:58.170Z,13.93
